Time;durP1;ratioP1;P1;durP2;ratioP2;P2;SDS_P1;SDS_P2;PMS_P1;PMS_P2;Temp;Humidity;BMP_temperature;BMP_pressure;BME280_temperature;BME280_humidity;BME280_pressure;Samples;Min_cycle;Max_cycle;Signal;HPM_P1;HPM_P2
2022/07/20 00:01:48;;;;;;;5.05;2.72;;;20.00;65.20;;;;;;5004797;28;20034;-38
2022/07/20 00:04:16;;;;;;;5.10;3.13;;;19.80;66.50;;;;;;5009246;28;20172;-39
2022/07/20 00:06:42;;;;;;;6.68;2.63;;;19.80;66.30;;;;;;5007298;28;20068;-39
2022/07/20 00:11:52;;;;;;;8.85;3.00;;;19.90;64.20;;;;;;5008042;28;20088;-40
2022/07/20 00:14:18;;;;;;;4.05;2.90;;;20.00;63.80;;;;;;5005188;28;20041;-39
2022/07/20 00:16:43;;;;;;;4.15;2.85;;;19.90;62.80;;;;;;5005540;28;20399;-40
2022/07/20 00:19:09;;;;;;;5.90;3.03;;;19.80;62.80;;;;;;5001003;28;20080;-39
2022/07/20 00:21:35;;;;;;;4.47;3.67;;;19.60;62.30;;;;;;5003980;28;20033;-37
2022/07/20 00:24:01;;;;;;;5.35;3.70;;;19.50;64.60;;;;;;5006174;28;20029;-40
2022/07/20 00:26:26;;;;;;;6.95;3.30;;;19.40;68.70;;;;;;5004583;28;20042;-38
2022/07/20 00:28:52;;;;;;;5.85;3.70;;;19.20;71.10;;;;;;5013263;28;20061;-36
2022/07/20 00:31:19;;;;;;;5.38;3.55;;;19.10;74.50;;;;;;5004322;28;20373;-40
2022/07/20 00:33:48;;;;;;;6.13;4.47;;;19.10;72.50;;;;;;5007764;28;20029;-39
2022/07/20 00:36:18;;;;;;;4.75;3.40;;;19.30;70.60;;;;;;5007222;28;20507;-39
2022/07/20 00:38:44;;;;;;;6.13;3.50;;;19.30;71.20;;;;;;5005933;28;20694;-35
2022/07/20 00:41:09;;;;;;;5.30;3.67;;;19.30;71.90;;;;;;5005034;28;20667;-41
2022/07/20 00:43:55;;;;;;;4.55;3.35;;;19.10;80.10;;;;;;5005481;28;20021;-36
2022/07/20 00:46:21;;;;;;;5.40;3.72;;;18.90;82.20;;;;;;5007463;28;20045;-38
2022/07/20 00:48:46;;;;;;;6.53;3.53;;;18.90;77.00;;;;;;5006719;28;20042;-38
2022/07/20 00:51:12;;;;;;;7.15;3.47;;;18.90;75.40;;;;;;5007482;28;20048;-38
2022/07/20 00:53:39;;;;;;;5.45;3.13;;;18.90;76.10;;;;;;5007422;28;20842;-39
2022/07/20 00:56:06;;;;;;;4.38;3.20;;;18.90;75.30;;;;;;5007690;28;20433;-39
2022/07/20 00:58:31;;;;;;;4.32;2.85;;;19.00;79.60;;;;;;5004536;28;20038;-39
2022/07/20 01:00:57;;;;;;;4.50;2.90;;;19.00;79.30;;;;;;5005744;28;20084;-39
2022/07/20 01:03:24;;;;;;;4.55;3.15;;;19.00;76.60;;;;;;5006029;28;20029;-40
2022/07/20 01:05:49;;;;;;;5.50;3.13;;;19.00;75.50;;;;;;5002964;28;20549;-36
2022/07/20 01:08:15;;;;;;;5.28;2.90;;;18.90;75.10;;;;;;5000550;28;20026;-39
2022/07/20 01:10:41;;;;;;;4.60;3.15;;;18.60;83.00;;;;;;5005416;28;20034;-38
2022/07/20 01:13:07;;;;;;;3.38;3.00;;;18.50;78.80;;;;;;5004432;28;20044;-39
2022/07/20 01:15:32;;;;;;;5.45;3.00;;;18.60;75.80;;;;;;5007563;28;20112;-38
2022/07/20 01:17:58;;;;;;;6.35;3.10;;;18.60;74.90;;;;;;5004441;28;20030;-39
2022/07/20 01:20:25;;;;;;;3.55;3.25;;;18.60;74.90;;;;;;5003864;28;20049;-39
2022/07/20 01:22:51;;;;;;;5.28;3.13;;;18.50;75.60;;;;;;5003883;28;20040;-39
2022/07/20 01:25:17;;;;;;;4.03;3.05;;;18.60;75.10;;;;;;5005115;28;20053;-39
2022/07/20 01:27:42;;;;;;;4.93;3.10;;;18.50;76.40;;;;;;5001024;28;20587;-38
2022/07/20 01:30:09;;;;;;;3.63;3.00;;;18.40;79.30;;;;;;5008067;28;20045;-39
2022/07/20 01:32:34;;;;;;;7.78;4.05;;;18.20;81.00;;;;;;5009079;28;20106;-39
2022/07/20 01:35:00;;;;;;;4.85;3.60;;;18.10;80.90;;;;;;5012592;28;20096;-38
2022/07/20 01:37:26;;;;;;;5.45;3.50;;;18.10;81.40;;;;;;5013915;28;20495;-40
2022/07/20 01:39:52;;;;;;;5.20;3.28;;;18.10;83.80;;;;;;5009055;28;20060;-38
2022/07/20 01:42:17;;;;;;;4.20;3.30;;;18.00;83.10;;;;;;5009782;28;20042;-37
2022/07/20 01:44:43;;;;;;;4.53;3.33;;;18.00;82.80;;;;;;5010208;28;20033;-38
2022/07/20 01:47:09;;;;;;;6.63;3.22;;;18.10;82.00;;;;;;5009227;28;20030;-39
2022/07/20 01:49:34;;;;;;;6.43;3.15;;;18.10;81.10;;;;;;5012287;28;20029;-39
2022/07/20 01:52:01;;;;;;;4.72;3.60;;;18.10;81.40;;;;;;5010353;28;20149;-39
2022/07/20 01:54:27;;;;;;;5.30;3.17;;;18.00;82.90;;;;;;5011722;28;20044;-37
2022/07/20 01:56:52;;;;;;;6.43;3.75;;;17.90;84.00;;;;;;5011423;28;20490;-39
2022/07/20 01:59:18;;;;;;;5.85;3.90;;;17.80;85.10;;;;;;5009939;28;20113;-39
2022/07/20 02:01:43;;;;;;;5.95;3.22;;;17.80;85.20;;;;;;5011215;28;20034;-38
2022/07/20 02:04:09;;;;;;;5.70;3.67;;;17.80;84.10;;;;;;5010716;28;20030;-39
2022/07/20 02:06:35;;;;;;;7.03;3.33;;;17.60;91.10;;;;;;5015185;28;20029;-39
2022/07/20 02:09:01;;;;;;;10.60;3.65;;;17.30;93.20;;;;;;5010238;28;20044;-38
2022/07/20 02:11:27;;;;;;;7.20;4.15;;;17.10;93.50;;;;;;5012415;28;20033;-39
2022/07/20 02:13:52;;;;;;;6.80;3.65;;;17.10;91.10;;;;;;5011194;28;20491;-39
2022/07/20 02:16:19;;;;;;;6.28;3.70;;;17.30;89.70;;;;;;5012527;28;20096;-39
2022/07/20 02:18:48;;;;;;;5.30;3.08;;;17.20;92.90;;;;;;5014495;28;20511;-39
2022/07/20 02:21:15;;;;;;;7.30;3.20;;;17.00;95.10;;;;;;5006667;28;20479;-38
2022/07/20 02:23:41;;;;;;;8.43;3.60;;;16.90;92.90;;;;;;5009671;28;20022;-38
2022/07/20 02:26:07;;;;;;;6.03;3.05;;;17.00;92.90;;;;;;5011975;28;20030;-38
2022/07/20 02:28:33;;;;;;;5.07;2.88;;;16.90;93.60;;;;;;4999980;28;20030;-39
2022/07/20 02:30:59;;;;;;;4.80;3.30;;;17.00;93.30;;;;;;5010240;28;20038;-39
2022/07/20 02:33:25;;;;;;;4.30;3.17;;;16.30;96.20;;;;;;5012115;28;20040;-36
2022/07/20 02:35:51;;;;;;;4.57;3.13;;;16.20;97.30;;;;;;5014923;28;20478;-39
2022/07/20 02:38:17;;;;;;;4.65;3.15;;;16.40;96.40;;;;;;5013043;28;20083;-39
2022/07/20 02:40:42;;;;;;;4.90;3.22;;;16.50;93.70;;;;;;5010302;28;20175;-39
2022/07/20 02:43:08;;;;;;;6.45;2.90;;;16.60;92.90;;;;;;5007493;28;20030;-38
2022/07/20 02:45:34;;;;;;;6.05;2.85;;;16.60;91.70;;;;;;5009942;28;20604;-39
2022/07/20 02:48:05;;;;;;;5.63;3.10;;;16.60;93.00;;;;;;5008558;28;20038;-38
2022/07/20 02:50:33;;;;;;;2.85;2.65;;;16.70;91.50;;;;;;5008534;28;20037;-38
2022/07/20 02:53:00;;;;;;;6.85;3.17;;;16.60;92.50;;;;;;5017884;28;20398;-38
2022/07/20 02:55:25;;;;;;;5.68;3.45;;;16.60;92.30;;;;;;5009291;28;20053;-40
2022/07/20 02:57:52;;;;;;;4.00;3.20;;;16.70;91.60;;;;;;5007272;28;20391;-38
2022/07/20 03:00:18;;;;;;;5.30;3.40;;;16.70;91.80;;;;;;5003598;28;20136;-39
2022/07/20 03:02:44;;;;;;;6.07;3.17;;;16.70;91.50;;;;;;5005185;28;20117;-39
2022/07/20 03:05:09;;;;;;;3.45;2.83;;;16.60;91.30;;;;;;5010707;28;20041;-38
2022/07/20 03:07:35;;;;;;;8.10;3.70;;;16.60;91.00;;;;;;5009893;28;20025;-39
2022/07/20 03:10:01;;;;;;;4.25;3.50;;;16.30;96.50;;;;;;5010441;28;20117;-39
2022/07/20 03:12:27;;;;;;;6.30;3.80;;;16.00;98.60;;;;;;5007581;28;20036;-39
2022/07/20 03:14:53;;;;;;;6.00;3.75;;;16.00;96.00;;;;;;5002379;28;20026;-36
2022/07/20 03:17:18;;;;;;;5.47;3.63;;;16.10;96.20;;;;;;5007420;28;20109;-36
2022/07/20 03:19:45;;;;;;;6.80;3.40;;;16.00;95.80;;;;;;5003375;28;21212;-37
2022/07/20 03:22:11;;;;;;;5.28;3.30;;;16.10;94.10;;;;;;5007542;28;20026;-37
2022/07/20 03:24:37;;;;;;;8.63;3.88;;;16.20;93.60;;;;;;5010176;28;20018;-39
2022/07/20 03:27:03;;;;;;;7.38;3.95;;;16.20;94.20;;;;;;5007312;28;20056;-38
2022/07/20 03:29:29;;;;;;;6.95;4.07;;;16.20;94.10;;;;;;5005846;28;20026;-37
2022/07/20 03:31:55;;;;;;;7.35;3.70;;;16.10;94.30;;;;;;5006052;28;20050;-38
2022/07/20 03:34:21;;;;;;;5.05;3.22;;;16.10;93.70;;;;;;5007343;28;20064;-38
2022/07/20 03:36:48;;;;;;;5.32;3.25;;;16.20;92.60;;;;;;5007251;28;20065;-35
2022/07/20 03:39:14;;;;;;;6.47;3.80;;;16.20;92.60;;;;;;5010217;28;20104;-39
2022/07/20 03:41:40;;;;;;;4.82;3.25;;;16.00;93.80;;;;;;5004201;28;20056;-38
2022/07/20 03:44:06;;;;;;;5.45;3.13;;;15.90;93.70;;;;;;5005922;28;20066;-37
2022/07/20 03:46:31;;;;;;;6.35;3.28;;;16.00;93.30;;;;;;5001457;28;20030;-37
2022/07/20 03:48:57;;;;;;;6.85;3.55;;;16.00;94.00;;;;;;5002011;28;20033;-37
2022/07/20 03:51:23;;;;;;;4.68;3.97;;;15.90;95.70;;;;;;5002420;28;20036;-39
2022/07/20 03:53:49;;;;;;;4.78;3.80;;;15.90;95.10;;;;;;5006398;28;20056;-38
2022/07/20 03:56:15;;;;;;;5.80;3.58;;;15.90;95.60;;;;;;5006363;28;20030;-39
2022/07/20 03:58:40;;;;;;;6.40;3.90;;;15.90;96.30;;;;;;5009041;28;20042;-36
2022/07/20 04:01:06;;;;;;;5.95;3.72;;;15.80;97.00;;;;;;5004806;28;20590;-37
2022/07/20 04:03:32;;;;;;;8.85;3.72;;;16.00;96.50;;;;;;5007313;28;20042;-39
2022/07/20 04:05:57;;;;;;;6.72;3.28;;;16.10;95.50;;;;;;5008057;28;20033;-39
2022/07/20 04:08:23;;;;;;;6.45;3.70;;;16.00;96.10;;;;;;5009306;28;20033;-39
2022/07/20 04:10:49;;;;;;;4.60;3.20;;;15.90;95.50;;;;;;5005284;28;20444;-37
2022/07/20 04:13:14;;;;;;;6.05;3.33;;;15.90;95.50;;;;;;5007636;28;20037;-38
2022/07/20 04:15:40;;;;;;;7.65;3.78;;;15.90;94.60;;;;;;5006833;28;20108;-39
2022/07/20 04:18:06;;;;;;;6.68;3.83;;;15.60;97.80;;;;;;5004871;28;20419;-38
2022/07/20 04:20:31;;;;;;;4.47;3.42;;;15.20;99.90;;;;;;5005791;28;20026;-37
2022/07/20 04:22:57;;;;;;;4.43;3.42;;;14.80;99.90;;;;;;5001543;28;20022;-39
2022/07/20 04:25:23;;;;;;;4.00;3.58;;;14.70;99.90;;;;;;5001256;28;21415;-38
2022/07/20 04:27:50;;;;;;;5.03;3.45;;;14.80;99.90;;;;;;5004464;28;20040;-38
2022/07/20 04:30:16;;;;;;;6.30;3.78;;;15.00;99.90;;;;;;5004937;28;20482;-38
2022/07/20 04:32:43;;;;;;;7.18;4.03;;;15.20;99.90;;;;;;5006496;28;20034;-37
2022/07/20 04:35:09;;;;;;;6.72;3.97;;;15.40;99.90;;;;;;5008833;28;20496;-38
2022/07/20 04:37:36;;;;;;;6.30;3.80;;;15.70;99.90;;;;;;5009032;28;20509;-37
2022/07/20 04:40:02;;;;;;;7.63;3.40;;;15.90;99.90;;;;;;5006412;28;20030;-38
2022/07/20 04:42:28;;;;;;;4.35;3.22;;;16.00;98.50;;;;;;5004732;28;20491;-38
2022/07/20 04:44:54;;;;;;;6.63;3.88;;;16.20;97.60;;;;;;5005594;28;20036;-37
2022/07/20 04:47:20;;;;;;;6.05;3.40;;;16.40;98.50;;;;;;5008281;28;20100;-37
2022/07/20 04:49:45;;;;;;;6.88;3.80;;;16.40;99.90;;;;;;5009280;28;20034;-35
2022/07/20 04:52:11;;;;;;;10.10;3.65;;;16.40;99.80;;;;;;5002030;28;20522;-38
2022/07/20 04:54:36;;;;;;;13.73;3.92;;;16.50;97.30;;;;;;5003293;28;20048;-39
2022/07/20 04:57:02;;;;;;;4.93;3.38;;;16.60;99.30;;;;;;5003163;28;20104;-36
2022/07/20 04:59:28;;;;;;;5.18;4.03;;;16.60;98.90;;;;;;5001427;28;20116;-39
2022/07/20 05:01:54;;;;;;;7.30;4.15;;;16.60;98.30;;;;;;5003971;28;20026;-38
2022/07/20 05:04:19;;;;;;;7.72;3.88;;;16.50;98.30;;;;;;5008047;28;20026;-39
2022/07/20 05:06:45;;;;;;;6.70;3.92;;;16.50;99.00;;;;;;5009047;28;20515;-37
2022/07/20 05:09:11;;;;;;;5.10;3.28;;;16.60;97.50;;;;;;5007146;28;20426;-38
2022/07/20 05:11:40;;;;;;;5.30;3.58;;;16.70;97.60;;;;;;5003656;28;20403;-39
2022/07/20 05:14:08;;;;;;;5.63;3.63;;;16.90;99.20;;;;;;5003548;28;20104;-38
2022/07/20 05:16:34;;;;;;;4.68;3.25;;;17.00;96.80;;;;;;5005749;28;20034;-38
2022/07/20 05:19:00;;;;;;;6.25;4.00;;;17.20;97.00;;;;;;5000042;28;20531;-36
2022/07/20 05:21:25;;;;;;;6.28;4.07;;;17.30;97.30;;;;;;5001300;28;20383;-39
2022/07/20 05:23:51;;;;;;;5.60;3.80;;;17.40;95.40;;;;;;5003740;28;20062;-39
2022/07/20 05:26:17;;;;;;;6.32;3.70;;;17.60;95.20;;;;;;5004272;28;20594;-36
2022/07/20 05:28:43;;;;;;;6.57;4.80;;;17.60;95.90;;;;;;5016177;28;20041;-39
2022/07/20 05:31:09;;;;;;;6.63;4.00;;;17.40;97.30;;;;;;5007926;28;20038;-38
2022/07/20 05:33:36;;;;;;;9.23;4.20;;;17.50;97.10;;;;;;5005796;28;20041;-39
2022/07/20 05:36:03;;;;;;;5.75;4.10;;;17.80;96.80;;;;;;5007762;28;20411;-39
2022/07/20 05:38:29;;;;;;;7.45;3.35;;;18.00;96.50;;;;;;5007342;28;20030;-39
2022/07/20 05:40:55;;;;;;;4.68;3.95;;;18.10;94.80;;;;;;5007651;28;20041;-39
2022/07/20 05:43:21;;;;;;;5.65;4.18;;;18.40;93.80;;;;;;5001564;28;20030;-37
2022/07/20 05:45:46;;;;;;;10.18;4.43;;;18.70;92.30;;;;;;5006341;28;20018;-39
2022/07/20 05:48:13;;;;;;;4.88;3.85;;;18.80;94.20;;;;;;5002074;28;20037;-36
2022/07/20 05:50:39;;;;;;;5.90;3.97;;;18.90;93.20;;;;;;5008667;28;20670;-40
2022/07/20 05:53:06;;;;;;;6.05;4.20;;;18.90;93.80;;;;;;5004286;28;20619;-38
2022/07/20 05:55:32;;;;;;;8.07;4.28;;;19.10;92.40;;;;;;5004905;28;20030;-38
2022/07/20 05:57:58;;;;;;;5.47;4.13;;;19.40;91.10;;;;;;5005118;28;20041;-39
2022/07/20 06:00:24;;;;;;;11.23;4.70;;;19.60;90.60;;;;;;5004650;28;20041;-39
2022/07/20 06:02:49;;;;;;;7.40;4.57;;;19.80;90.60;;;;;;5003837;28;20022;-36
2022/07/20 06:05:15;;;;;;;6.55;4.03;;;19.90;87.10;;;;;;5005558;28;20026;-39
2022/07/20 06:07:41;;;;;;;7.03;3.90;;;20.10;88.30;;;;;;5008004;28;20113;-38
2022/07/20 06:10:07;;;;;;;6.63;3.55;;;20.30;82.40;;;;;;5007089;28;20407;-39
2022/07/20 06:12:33;;;;;;;5.68;4.00;;;20.50;78.50;;;;;;5005838;28;20029;-39
2022/07/20 06:14:58;;;;;;;4.93;3.65;;;20.60;80.00;;;;;;5004463;28;20041;-36
2022/07/20 06:17:31;;;;;;;6.60;3.45;;;20.70;77.00;;;;;;5001315;28;20567;-38
2022/07/20 06:19:57;;;;;;;6.55;3.58;;;20.90;76.20;;;;;;5005877;28;20030;-36
2022/07/20 06:22:22;;;;;;;5.75;4.00;;;21.10;73.50;;;;;;5010103;28;20808;-39
2022/07/20 06:24:48;;;;;;;6.78;3.63;;;21.10;71.00;;;;;;5011372;28;20065;-38
2022/07/20 06:27:14;;;;;;;5.15;3.80;;;21.30;72.90;;;;;;5009122;28;20030;-39
2022/07/20 06:29:39;;;;;;;6.78;3.33;;;21.40;72.80;;;;;;5010641;28;20034;-38
2022/07/20 06:32:05;;;;;;;8.18;3.47;;;21.50;71.60;;;;;;5010784;28;20072;-38
2022/07/20 06:34:31;;;;;;;6.60;3.78;;;21.50;72.70;;;;;;5010865;28;20470;-37
2022/07/20 06:36:56;;;;;;;5.97;3.58;;;21.70;74.50;;;;;;5011787;28;20030;-37
2022/07/20 06:39:22;;;;;;;3.88;3.30;;;21.90;74.60;;;;;;5010437;28;20056;-38
2022/07/20 06:41:47;;;;;;;8.98;3.78;;;22.00;72.80;;;;;;5010555;28;20032;-39
2022/07/20 06:44:13;;;;;;;3.83;3.30;;;22.00;72.80;;;;;;5004988;28;20030;-39
2022/07/20 06:46:39;;;;;;;8.48;3.50;;;22.10;71.20;;;;;;5010154;28;20022;-39
2022/07/20 06:49:06;;;;;;;3.90;3.40;;;22.20;70.50;;;;;;5010521;28;20101;-35
2022/07/20 06:51:31;;;;;;;4.95;3.30;;;22.30;69.10;;;;;;5008785;28;20509;-38
2022/07/20 06:53:57;;;;;;;7.55;3.85;;;22.50;66.90;;;;;;5008661;28;20041;-39
2022/07/20 06:56:23;;;;;;;4.15;3.40;;;22.80;64.80;;;;;;5009744;28;20030;-39
2022/07/20 06:58:48;;;;;;;4.75;4.03;;;23.00;64.10;;;;;;5009364;28;20034;-39
2022/07/20 07:01:14;;;;;;;5.40;4.40;;;23.20;63.40;;;;;;5006964;28;20049;-38
2022/07/20 07:03:39;;;;;;;4.45;3.90;;;23.00;63.30;;;;;;5003195;28;20379;-37
2022/07/20 07:06:05;;;;;;;6.28;3.97;;;23.20;64.00;;;;;;5010850;28;20368;-36
2022/07/20 07:08:31;;;;;;;7.10;4.50;;;23.30;63.10;;;;;;5008455;28;20029;-37
2022/07/20 07:10:57;;;;;;;7.65;4.68;;;23.00;63.60;;;;;;5006911;28;20048;-39
2022/07/20 07:13:22;;;;;;;8.38;4.63;;;23.00;62.80;;;;;;5007941;28;20038;-39
2022/07/20 07:15:48;;;;;;;4.93;4.47;;;23.30;63.60;;;;;;5007509;28;20041;-39
2022/07/20 07:18:13;;;;;;;6.88;4.18;;;23.60;63.10;;;;;;5010119;28;20466;-39
2022/07/20 07:20:39;;;;;;;6.28;4.55;;;24.10;63.30;;;;;;5009110;28;20459;-39
2022/07/20 07:23:05;;;;;;;8.65;5.50;;;24.40;61.30;;;;;;5011387;28;20036;-39
2022/07/20 07:25:31;;;;;;;6.13;4.97;;;24.50;59.40;;;;;;5002627;28;20026;-39
2022/07/20 07:27:56;;;;;;;5.60;4.60;;;24.60;57.30;;;;;;5007717;28;20396;-38
2022/07/20 07:30:22;;;;;;;6.38;4.70;;;24.70;58.70;;;;;;5006483;28;20030;-36
2022/07/20 07:32:48;;;;;;;7.45;5.10;;;24.50;55.60;;;;;;5003967;28;20030;-39
2022/07/20 07:35:13;;;;;;;7.25;4.35;;;24.90;56.60;;;;;;5003857;28;20459;-39
2022/07/20 07:37:39;;;;;;;6.55;4.82;;;25.40;56.20;;;;;;5015849;28;20070;-38
2022/07/20 07:40:06;;;;;;;5.88;4.05;;;25.40;54.00;;;;;;5008650;28;20848;-39
2022/07/20 07:42:31;;;;;;;7.88;5.05;;;25.40;55.70;;;;;;5006254;28;20057;-36
2022/07/20 07:44:59;;;;;;;7.10;4.70;;;25.50;54.30;;;;;;5010732;28;20479;-39
2022/07/20 07:47:24;;;;;;;6.05;4.85;;;25.40;54.40;;;;;;5008698;28;20030;-40
2022/07/20 07:49:50;;;;;;;8.48;4.90;;;25.60;53.00;;;;;;5008290;28;20048;-37
2022/07/20 07:52:16;;;;;;;7.03;4.97;;;25.80;51.70;;;;;;5008879;28;20399;-39
2022/07/20 07:54:41;;;;;;;6.70;4.75;;;25.80;53.00;;;;;;5007177;28;20037;-38
2022/07/20 07:57:07;;;;;;;8.35;5.00;;;26.00;50.80;;;;;;5008332;28;20017;-39
2022/07/20 07:59:34;;;;;;;6.00;4.65;;;26.30;51.90;;;;;;5008166;28;20109;-38
2022/07/20 08:02:00;;;;;;;7.27;5.23;;;26.80;50.00;;;;;;5008460;28;20034;-40
2022/07/20 08:04:25;;;;;;;5.95;4.95;;;26.70;48.90;;;;;;5006785;28;20497;-40
2022/07/20 08:06:51;;;;;;;7.53;4.63;;;26.90;47.50;;;;;;5009445;28;20113;-40
2022/07/20 08:09:17;;;;;;;10.65;5.07;;;26.90;49.10;;;;;;5007051;28;20034;-39
2022/07/20 08:11:42;;;;;;;5.38;4.57;;;27.00;47.90;;;;;;5008506;28;20069;-39
2022/07/20 08:14:08;;;;;;;6.25;5.10;;;27.20;48.80;;;;;;5008085;28;20041;-38
2022/07/20 08:16:33;;;;;;;7.72;5.45;;;27.00;48.10;;;;;;5006565;28;20139;-40
2022/07/20 08:18:59;;;;;;;5.70;4.57;;;26.70;48.10;;;;;;5009697;28;20038;-40
2022/07/20 08:21:25;;;;;;;7.43;5.38;;;27.20;48.80;;;;;;5008762;28;20022;-40
2022/07/20 08:23:51;;;;;;;7.13;5.72;;;27.50;46.10;;;;;;5022949;28;20021;-39
2022/07/20 08:26:16;;;;;;;7.55;4.85;;;27.90;46.20;;;;;;5009343;28;20049;-38
2022/07/20 08:28:42;;;;;;;7.07;4.72;;;28.10;45.70;;;;;;5006108;28;20038;-40
2022/07/20 08:31:08;;;;;;;7.75;5.32;;;27.90;44.90;;;;;;5006616;28;20120;-37
2022/07/20 08:33:33;;;;;;;5.38;4.53;;;27.90;45.70;;;;;;5007191;28;20057;-38
2022/07/20 08:35:59;;;;;;;6.25;5.18;;;28.40;45.40;;;;;;5023364;28;20099;-37
2022/07/20 08:38:27;;;;;;;5.85;4.43;;;28.80;44.30;;;;;;5009520;28;20025;-37
2022/07/20 08:40:54;;;;;;;5.65;4.85;;;29.10;44.60;;;;;;5006699;28;20022;-39
2022/07/20 08:43:20;;;;;;;7.80;4.88;;;28.70;44.40;;;;;;5007568;28;20041;-39
2022/07/20 08:45:47;;;;;;;7.07;5.13;;;28.60;43.40;;;;;;5005517;28;20511;-38
2022/07/20 08:48:17;;;;;;;6.50;5.10;;;29.00;43.70;;;;;;5006407;28;20499;-38
2022/07/20 08:50:44;;;;;;;8.15;4.90;;;28.70;42.10;;;;;;5007619;28;20138;-39
2022/07/20 08:53:10;;;;;;;7.03;5.37;;;29.10;43.40;;;;;;5008196;28;20518;-38
2022/07/20 08:55:35;;;;;;;7.15;4.70;;;29.30;42.20;;;;;;5024130;28;20029;-39
2022/07/20 08:58:01;;;;;;;6.97;4.63;;;29.10;42.80;;;;;;4990501;28;20041;-39
2022/07/20 09:00:27;;;;;;;5.55;4.57;;;29.70;42.30;;;;;;5004012;28;20021;-37
2022/07/20 09:03:01;;;;;;;5.45;4.47;;;30.20;40.70;;;;;;5005542;28;20108;-38
2022/07/20 09:05:28;;;;;;;8.57;4.82;;;30.50;39.70;;;;;;5001919;28;20113;-38
2022/07/20 09:07:55;;;;;;;7.00;4.70;;;30.30;39.60;;;;;;5005022;28;20057;-36
2022/07/20 09:10:25;;;;;;;;;;;30.60;40.50;;;;;;5007086;28;20395;-39
2022/07/20 09:12:57;;;;;;;7.82;4.00;;;31.00;39.60;;;;;;5006583;28;20438;-39
2022/07/20 09:15:39;;;;;;;7.88;4.40;;;30.60;37.60;;;;;;5008123;28;20045;-38
2022/07/20 09:18:15;;;;;;;5.93;4.75;;;30.10;38.20;;;;;;5008555;28;20030;-36
2022/07/20 09:20:46;;;;;;;5.77;4.20;;;29.90;39.00;;;;;;5009266;28;20037;-38
2022/07/20 09:23:19;;;;;;;4.95;4.45;;;30.00;38.50;;;;;;5008559;28;20479;-39
2022/07/20 09:25:55;;;;;;;8.35;5.32;;;29.70;37.20;;;;;;5005994;28;20451;-36
2022/07/20 09:28:22;;;;;;;8.68;4.57;;;30.10;39.30;;;;;;4999368;28;20061;-38
2022/07/20 09:30:56;;;;;;;5.68;4.00;;;30.70;38.50;;;;;;5003512;28;20037;-39
2022/07/20 09:33:30;;;;;;;6.45;4.18;;;30.80;36.40;;;;;;4999127;28;20076;-38
2022/07/20 09:35:57;;;;;;;6.25;4.80;;;30.80;37.20;;;;;;4998972;28;20561;-35
2022/07/20 09:38:33;;;;;;;;;;;30.70;36.90;;;;;;5009617;28;20045;-38
2022/07/20 09:40:59;;;;;;;8.35;4.50;;;30.80;37.70;;;;;;5002832;28;19909;-36
2022/07/20 09:43:30;;;;;;;5.03;4.03;;;31.30;37.20;;;;;;5008906;28;20029;-36
2022/07/20 09:46:19;;;;;;;9.82;4.40;;;31.40;36.20;;;;;;5006438;28;20029;-38
2022/07/20 09:48:47;;;;;;;5.75;3.88;;;31.80;36.50;;;;;;5003655;28;20030;-37
2022/07/20 09:51:17;;;;;;;6.35;4.30;;;31.60;35.40;;;;;;5008890;28;20402;-39
2022/07/20 09:53:43;;;;;;;5.53;4.15;;;31.50;35.80;;;;;;5010420;28;20037;-38
2022/07/20 09:56:09;;;;;;;10.40;4.60;;;31.80;36.90;;;;;;5011352;28;20398;-39
2022/07/20 09:58:37;;;;;;;6.40;4.40;;;32.00;36.00;;;;;;5010015;28;20045;-39
2022/07/20 10:01:03;;;;;;;7.75;4.20;;;32.30;35.60;;;;;;4999810;28;20033;-39
2022/07/20 10:03:29;;;;;;;5.78;4.25;;;32.00;35.60;;;;;;5009739;28;20018;-39
2022/07/20 10:05:56;;;;;;;6.35;4.28;;;32.50;34.60;;;;;;5005087;28;20426;-39
2022/07/20 10:08:23;;;;;;;5.97;4.78;;;32.60;33.20;;;;;;5007287;28;20037;-38
2022/07/20 10:10:49;;;;;;;10.15;4.55;;;32.40;34.00;;;;;;5008865;28;20038;-38
2022/07/20 10:13:15;;;;;;;6.03;4.13;;;32.60;33.80;;;;;;5006648;28;20104;-39
2022/07/20 10:15:52;;;;;;;8.73;4.80;;;33.00;34.60;;;;;;5026453;28;20029;-38
2022/07/20 10:18:19;;;;;;;5.15;4.63;;;32.40;34.70;;;;;;5011095;28;20038;-38
2022/07/20 10:20:45;;;;;;;5.90;4.47;;;32.00;33.40;;;;;;5009434;28;20042;-38
2022/07/20 10:23:16;;;;;;;5.47;4.25;;;32.50;33.80;;;;;;5011254;28;20049;-41
2022/07/20 10:25:46;;;;;;;6.38;4.25;;;32.30;33.30;;;;;;5008979;28;20378;-39
2022/07/20 10:28:33;;;;;;;6.47;4.35;;;32.80;32.90;;;;;;5008453;28;20475;-39
2022/07/20 10:31:06;;;;;;;5.57;4.07;;;33.30;32.00;;;;;;5006911;28;20026;-40
2022/07/20 10:33:37;;;;;;;9.73;4.40;;;33.80;31.60;;;;;;5009999;28;20038;-39
2022/07/20 10:36:44;;;;;;;6.18;4.70;;;34.00;29.70;;;;;;5009709;28;20037;-39
2022/07/20 10:39:44;;;;;;;7.57;4.68;;;33.80;30.30;;;;;;5000148;28;20041;-39
2022/07/20 10:42:30;;;;;;;6.50;3.80;;;33.80;30.30;;;;;;5006078;28;20038;-39
2022/07/20 10:45:27;;;;;;;5.50;3.83;;;33.90;29.90;;;;;;5008491;28;20068;-38
2022/07/20 10:47:55;;;;;;;8.02;4.45;;;34.20;29.80;;;;;;5007741;28;20430;-39
2022/07/20 10:50:29;;;;;;;8.65;4.70;;;34.00;29.40;;;;;;5007525;28;20872;-39
2022/07/20 10:53:15;;;;;;;10.18;4.13;;;34.00;30.10;;;;;;5010409;28;20038;-39
2022/07/20 10:55:58;;;;;;;6.38;4.45;;;33.90;30.00;;;;;;5003341;28;20032;-39
2022/07/20 10:58:25;;;;;;;6.85;4.63;;;33.60;29.80;;;;;;5006436;28;20098;-39
2022/07/20 11:00:57;;;;;;;6.63;4.70;;;33.70;29.80;;;;;;5009478;28;20034;-39
2022/07/20 11:03:29;;;;;;;5.45;3.80;;;33.70;30.10;;;;;;5014169;28;20296;-39
2022/07/20 11:06:18;;;;;;;5.53;4.15;;;33.60;29.30;;;;;;5004107;28;20034;-38
2022/07/20 11:08:57;;;;;;;5.72;4.00;;;33.60;29.00;;;;;;5004345;28;20453;-39
2022/07/20 11:11:28;;;;;;;6.63;4.00;;;33.50;28.90;;;;;;5002553;28;20033;-38
2022/07/20 11:13:54;;;;;;;5.38;4.18;;;33.50;28.70;;;;;;5007038;28;20122;-39
2022/07/20 11:16:22;;;;;;;5.22;3.80;;;33.60;28.90;;;;;;5002855;28;20120;-39
2022/07/20 11:18:49;;;;;;;4.93;3.88;;;33.70;29.40;;;;;;5011078;28;20076;-39
2022/07/20 11:21:15;;;;;;;4.45;3.78;;;33.80;28.50;;;;;;5008732;28;20448;-37
2022/07/20 11:23:48;;;;;;;7.70;4.15;;;33.70;30.10;;;;;;5003806;28;20100;-39
2022/07/20 11:26:16;;;;;;;4.28;3.35;;;33.30;28.20;;;;;;5007198;28;20058;-38
2022/07/20 11:28:44;;;;;;;4.68;3.70;;;33.40;27.50;;;;;;5005874;28;20038;-38
2022/07/20 11:31:10;;;;;;;4.15;3.25;;;33.20;27.10;;;;;;5009259;28;20624;-39
2022/07/20 11:33:42;;;;;;;5.37;3.47;;;33.30;27.50;;;;;;5006370;28;20076;-39
2022/07/20 11:36:37;;;;;;;3.60;3.25;;;33.50;27.80;;;;;;5008018;28;20137;-37
2022/07/20 11:39:05;;;;;;;7.57;3.38;;;33.50;27.50;;;;;;5006629;28;20053;-39
2022/07/20 11:41:32;;;;;;;4.90;3.42;;;33.30;26.20;;;;;;5008445;28;20034;-39
2022/07/20 11:43:59;;;;;;;3.83;3.38;;;33.30;25.90;;;;;;5010905;28;20382;-38
2022/07/20 11:46:26;;;;;;;;;;;33.30;25.80;;;;;;5010139;28;20040;-38
2022/07/20 11:48:53;;;;;;;;;;;33.50;26.10;;;;;;5010727;28;19909;-38
2022/07/20 11:51:19;;;;;;;7.03;3.40;;;33.60;26.40;;;;;;5009907;28;20263;-38
2022/07/20 11:53:45;;;;;;;6.05;3.35;;;33.40;26.50;;;;;;5009529;28;20099;-39
2022/07/20 11:56:15;;;;;;;3.85;3.03;;;33.50;26.30;;;;;;5008421;28;20065;-38
2022/07/20 11:58:43;;;;;;;3.33;3.03;;;33.70;24.90;;;;;;5003500;28;20368;-36
2022/07/20 12:01:13;;;;;;;4.28;3.10;;;33.60;24.50;;;;;;5009151;28;20030;-35
2022/07/20 12:03:41;;;;;;;3.17;2.85;;;33.70;25.40;;;;;;5008338;28;20072;-38
2022/07/20 12:06:12;;;;;;;4.43;3.25;;;33.60;25.10;;;;;;5008671;28;20030;-39
2022/07/20 12:08:39;;;;;;;3.50;3.13;;;33.40;24.50;;;;;;5007775;28;20116;-39
2022/07/20 12:11:06;;;;;;;6.55;3.50;;;33.40;24.20;;;;;;5009492;28;20438;-38
2022/07/20 12:13:42;;;;;;;;;;;33.50;24.60;;;;;;5010633;28;20506;-36
2022/07/20 12:16:08;;;;;;;4.20;3.00;;;33.40;25.00;;;;;;5009427;28;19913;-37
2022/07/20 12:18:44;;;;;;;3.70;3.15;;;33.50;25.90;;;;;;5010883;28;20034;-39
2022/07/20 12:21:15;;;;;;;6.32;3.35;;;33.30;24.60;;;;;;5008226;28;20080;-38
2022/07/20 12:23:45;;;;;;;5.60;3.42;;;33.30;24.20;;;;;;5008975;28;20096;-37
2022/07/20 12:26:28;;;;;;;6.32;3.78;;;33.50;24.90;;;;;;5005847;28;20033;-39
2022/07/20 12:29:21;;;;;;;4.10;3.33;;;33.60;25.30;;;;;;5009338;28;20483;-37
2022/07/20 12:32:07;;;;;;;4.35;3.08;;;33.70;26.70;;;;;;5006224;28;20044;-39
2022/07/20 12:34:53;;;;;;;5.85;3.33;;;33.70;25.10;;;;;;5010221;28;20053;-38
2022/07/20 12:37:20;;;;;;;4.07;3.27;;;33.80;24.30;;;;;;5004221;28;20487;-39
2022/07/20 12:39:49;;;;;;;4.75;2.80;;;33.90;24.80;;;;;;5009181;28;20025;-36
2022/07/20 12:42:23;;;;;;;4.20;2.97;;;33.80;24.50;;;;;;5006958;28;20114;-38
2022/07/20 12:44:58;;;;;;;4.65;3.38;;;33.60;23.60;;;;;;5007353;28;20502;-38
2022/07/20 12:47:24;;;;;;;6.38;3.58;;;33.70;23.90;;;;;;5007549;28;20041;-37
2022/07/20 12:49:50;;;;;;;5.43;2.97;;;33.90;24.00;;;;;;5009223;28;20030;-38
2022/07/20 12:52:15;;;;;;;8.48;3.58;;;33.80;24.00;;;;;;5010149;28;20033;-37
2022/07/20 12:54:41;;;;;;;6.63;3.38;;;33.80;25.30;;;;;;5020830;28;20038;-37